Flight Track Log - Related Links

Times and Time Zones

All times are in EDT time to prevent confusion due to time zone crossing. See the N382DJ flight status page for this flight to view local times or setup timezone preferences in your user account.

Time Position Orientation Groundspeed Altitude Reporting Facility
EDT Latitude Longitude Course Direction KTS MPH feet Rate Location/Type
Thu 02:01:05 PM 47.5164 -117.7347 234° Southwest 141 162 6,700  Level Seattle Center
Thu 02:02:00 PM 47.4480 -117.8410 230° Southwest  Level FlightAware Approximate
Thu 02:02:07 PM 47.4936 -117.7806 234° Southwest 140 161 7,400  Level Seattle Center
Thu 02:03:00 PM 47.4202 -117.8930 234° Southwest  Level FlightAware Approximate
Thu 02:03:08 PM 47.4697 -117.8272 233° Southwest 142 163 8,200  Level Seattle Center
Thu 02:04:00 PM 47.3937 -117.9464 234° Southwest  Level FlightAware Approximate
Thu 02:04:09 PM 47.4453 -117.8756 233° Southwest 146 168 9,000  Level Seattle Center
Thu 02:05:00 PM 47.3671 -117.9997 234° Southwest  Level FlightAware Approximate
Thu 02:05:11 PM 47.4211 -117.9250 234° Southwest 149 171 9,800  Level Seattle Center
Thu 02:06:00 PM 47.3405 -118.0530 234° Southwest  Level FlightAware Approximate
Thu 02:06:12 PM 47.3936 -117.9772 232° Southwest 165 190 10,000  Level Seattle Center
Thu 02:07:13 PM 47.3644 -118.0358 234° Southwest 179 206 10,000  Level Seattle Center
Thu 02:08:15 PM 47.3344 -118.0944 233° Southwest 178 205 10,000  Level Seattle Center
Thu 02:09:16 PM 47.3056 -118.1500 233° Southwest 172 198 10,000  Level Seattle Center
Thu 02:10:17 PM 47.2733 -118.2156 234° Southwest 167 192 10,000  Level Seattle Center
Thu 02:11:19 PM 47.2453 -118.2700 233° Southwest 167 192 10,000  Level Seattle Center
Thu 02:12:20 PM 47.2150 -118.3250 231° Southwest 171 197 10,000  Level Seattle Center
Thu 02:13:21 PM 47.1869 -118.3797 233° Southwest 169 194 10,000 49 Level Seattle Center
Thu 02:14:23 PM 47.1583 -118.4367 234° Southwest 171 197 10,100  Climbing Seattle Center
Thu 02:15:24 PM 47.1308 -118.4897 233° Southwest 169 194 10,000 -49 Descending Seattle Center
Thu 02:16:25 PM 47.1019 -118.5453 233° Southwest 171 197 10,000  Level Seattle Center
Thu 02:17:27 PM 47.0733 -118.5992 232° Southwest 169 194 10,000  Level Seattle Center
Thu 02:18:28 PM 47.0450 -118.6564 234° Southwest 174 200 10,000 -49 Level Seattle Center
Thu 02:19:29 PM 47.0106 -118.7219 232° Southwest 171 197 9,900 -49 Descending Seattle Center
Thu 02:20:31 PM 46.9819 -118.7756 232° Southwest 168 193 9,900  Level Seattle Center
Thu 02:21:32 PM 46.9536 -118.8308 233° Southwest 170 196 9,900  Level Seattle Center
Thu 02:22:33 PM 46.9239 -118.8864 232° Southwest 173 199 9,900  Level Seattle Center
Thu 02:23:35 PM 46.8947 -118.9397 231° Southwest 170 196 9,900  Level Seattle Center
Thu 02:24:36 PM 46.8664 -118.9950 233° Southwest 170 196 9,900  Level Seattle Center
Thu 02:25:37 PM 46.8383 -119.0497 233° Southwest 170 196 9,900  Level Seattle Center
Thu 02:26:39 PM 46.8100 -119.1036 232° Southwest 167 192 9,900  Level Seattle Center
Thu 02:27:40 PM 46.7753 -119.1675 232° Southwest 167 192 9,900 49 Level Seattle Center
Thu 02:28:41 PM 46.7475 -119.2172 231° Southwest 164 189 10,000 49 Climbing Seattle Center
Thu 02:29:43 PM 46.7194 -119.2714 233° Southwest 168 193 10,000  Level Seattle Center
Thu 02:30:44 PM 46.6911 -119.3250 232° Southwest 167 192 10,000  Level Seattle Center
Thu 02:31:46 PM 46.6628 -119.3781 232° Southwest 169 194 10,000  Level Seattle Center
Thu 02:32:47 PM 46.6336 -119.4311 231° Southwest 169 194 10,000  Level Seattle Center
Thu 02:33:48 PM 46.6053 -119.4861 233° Southwest 170 196 10,000  Level Seattle Center
Thu 02:34:50 PM 46.5706 -119.5486 231° Southwest 169 194 10,000  Level Seattle Center
Thu 02:35:51 PM 46.5422 -119.6022 232° Southwest 168 193 10,000  Level Seattle Center
Thu 02:36:52 PM 46.5133 -119.6558 232° Southwest 170 196 10,000 49 Level Seattle Center
Thu 02:37:54 PM 46.4839 -119.7106 232° Southwest 174 200 10,100 49 Climbing Seattle Center
Thu 02:38:55 PM 46.4556 -119.7647 233° Southwest 167 192 10,100  Level Seattle Center
Thu 02:39:57 PM 46.4256 -119.8183 231° Southwest 169 194 10,100  Level Seattle Center
Thu 02:40:58 PM 46.3961 -119.8714 231° Southwest 171 197 10,100  Level Seattle Center
Thu 02:42:00 PM 46.3681 -119.9244 233° Southwest 169 194 10,100  Level Seattle Center
Thu 02:43:01 PM 46.3322 -119.9900 232° Southwest 172 198 10,100  Level Seattle Center
Thu 02:44:02 PM 46.3042 -120.0422 232° Southwest 171 197 10,100  Level Seattle Center
Thu 02:45:04 PM 46.2747 -120.0953 231° Southwest 170 196 10,100  Level Seattle Center
Thu 02:46:05 PM 46.2456 -120.1500 232° Southwest 172 198 10,100  Level Seattle Center
Thu 02:47:07 PM 46.2161 -120.1989 229° Southwest 165 190 10,100  Level Seattle Center
Thu 02:48:08 PM 46.1869 -120.2525 232° Southwest 171 197 10,100  Level Seattle Center
Thu 02:49:09 PM 46.1572 -120.3047 231° Southwest 169 194 10,100  Level Seattle Center
Thu 02:50:11 PM 46.1292 -120.3594 234° Southwest 170 196 10,100  Level Seattle Center
Thu 02:51:12 PM 46.0978 -120.4128 230° Southwest 175 201 10,100  Level Seattle Center
Thu 02:52:14 PM 46.0633 -120.4781 233° Southwest 173 199 10,100  Level Seattle Center
Thu 02:53:15 PM 46.0331 -120.5314 231° Southwest 172 198 10,100  Level Seattle Center
Thu 02:54:17 PM 46.0036 -120.5847 232° Southwest 172 198 10,100  Level Seattle Center
Thu 02:55:18 PM 45.9728 -120.6392 231° Southwest 174 200 10,100 -49 Level Seattle Center
Thu 02:56:19 PM 45.9425 -120.6922 231° Southwest 173 199 10,000 -49 Descending Seattle Center
Thu 02:57:21 PM 45.9131 -120.7439 231° Southwest 170 196 10,000  Level Seattle Center
Thu 02:58:22 PM 45.8839 -120.7975 232° Southwest 170 196 10,000  Level Seattle Center
Thu 02:59:24 PM 45.8542 -120.8503 231° Southwest 171 197 10,000  Level Seattle Center
Thu 03:00:25 PM 45.8178 -120.9133 230° Southwest 172 198 10,000  Level Seattle Center
Thu 03:01:27 PM 45.7881 -120.9656 231° Southwest 171 197 10,000  Level Seattle Center
Thu 03:02:28 PM 45.7578 -121.0203 232° Southwest 173 199 10,000  Level Seattle Center
Thu 03:03:29 PM 45.7281 -121.0728 231° Southwest 172 198 10,000  Level Seattle Center
Thu 03:04:31 PM 45.7019 -121.1281 236° Southwest 171 197 10,000  Level Seattle Center
Thu 03:05:32 PM 45.6875 -121.1911 252° West 169 194 10,000 -98 Level Seattle Center
Thu 03:06:34 PM 45.6694 -121.2569 249° West 174 200 9,800 -195 Descending Seattle Center
Thu 03:07:35 PM 45.6522 -121.3219 249° West 176 203 9,600 -101 Descending Seattle Center
Thu 03:08:33 PM 45.6386 -121.3969 255° West 177 204 9,600 -178 Level Seattle Center
Thu 03:09:16 PM 45.6258 -121.4397 247° West 175 201 9,300 -382 Descending Seattle Center
Thu 03:10:23 PM 45.6053 -121.5167 249° West 183 211 8,900 -375 Descending Seattle Center
Thu 03:11:24 PM 45.5867 -121.5836 248° West 179 206 8,500 -397 Descending Seattle Center
Thu 03:12:24 PM 45.5661 -121.6511 247° West 180 207 8,100 -397 Descending Seattle Center
Thu 03:13:25 PM 45.5489 -121.7142 249° West 178 205 7,700 -393 Descending Seattle Center
Thu 03:14:26 PM 45.5303 -121.7808 248° West 178 205 7,300 -406 Descending Seattle Center
Thu 03:15:38 PM 45.5081 -121.8614 249° West 180 207 6,800 -331 Descending Seattle Center
Thu 03:16:33 PM 45.4903 -121.9217 247° West 178 205 6,600 -259 Descending Seattle Center
Thu 03:17:34 PM 45.4722 -121.9817 247° West 171 197 6,300 -385 Descending Seattle Center
Thu 03:18:22 PM 45.4564 -122.0408 249° West 180 207 5,900 -470 Descending Seattle Center
Thu 03:19:29 PM 45.4361 -122.1108 248° West 186 214 5,400 -469 Descending Seattle Center
Thu 03:20:30 PM 45.4069 -122.1692 235° Southwest 190 219 4,900 -516 Descending Seattle Center
Thu 03:21:37 PM 45.3464 -122.1914 194° South 195 224 4,300 -541 Descending Seattle Center
Thu 03:22:32 PM 45.3219 -122.2414 235° Southwest 184 212 3,800 -496 Descending Seattle Center
Thu 03:23:38 PM 45.3108 -122.3136 258° West 176 203 3,300 -472 Descending Seattle Center
Thu 03:24:39 PM 45.3011 -122.3822 259° West 175 201 2,800 -492 Descending Seattle Center
Thu 03:26:00 PM 45.2932 -122.4481 260° West  Level FlightAware Approximate
Thu 03:33:00 PM 45.2333 -122.7667 245° Southwest  Level FlightAware Approximate
Thu 03:34:00 PM 45.2471 -122.7701 245° Southwest  Level Estimated

Login

Don't have an account? Register now (free) for customized features, flight alerts, and more!